Davisburg, MI (48350)

21:48 EDT 1. Září 2014 (GMT -0400)
@ Trillium Hill | Change Station
CLOSE
Current Station
Osobní povětrnostní stanice
Location: Clarkston: NE Springfield Twp, MI
Nadmořská výška: 1210 ft
Poblíž povětrnostní stanice

Výška 1210 ft 42.78 °N, 83.48 °W | Updated 9 seconds ago

Skoro zataženo
Skoro zataženo
68.4 °F
Pocit jako 68.4 °F
S
1.6
Vítr proměnlivý Vítr od JZ
Gusts 1.6 mil/h

Dnes
Vysoké -- | Nízké -- °F
--% Možnost srážek
Včera
Vysoké -- | Nízké -- °F
Precip. -- inčů
6:58 AM 8:08 PM
Dorůstající srpek, 46% visible
Tlak 29.80 inčů
Viditelnost 10.0 mílí
Zataženo Skoro zataženo 26000 ft
Rosný bod 68 °F
Vlhkost 97%
Dešťové srážky 0.00 inčů
Sněhová pokrývka Není k dispozici
UV záření 0 ze 12
Pyl 9.50 ze 12
Ozón Dobrý
PM2.5 Dobrý
Flu Activity Není k dispozici
METAR KPTK 020053Z 00000KT 10SM BKN260 22/19 A2981 RMK AO2 SLP089 T02170194 $

More Conditions Fewer Conditions

Tlak 29.80 inčů
Viditelnost 10.0 mílí
Zataženo Skoro zataženo 26000 ft
Rosný bod 68 °F
Vlhkost 97%
Dešťové srážky 0.00 inčů
Sněhová pokrývka Není k dispozici
UV záření 0 ze 12
Pyl 9.50 ze 12
Ozón Dobrý
PM2.5 Dobrý
Flu Activity Není k dispozici
METAR KPTK 020053Z 00000KT 10SM BKN260 22/19 A2981 RMK AO2 SLP089 T02170194 $

More Conditions Fewer Conditions

10-Day Weather Forecast

Almanac

Astronomie

Sep. 01, 2014 Východ Západ
Skutečný čas 06:58 EDT 20:08 EDT
Občanský soumrak 06:29 EDT 20:37 EDT
Námořní soumrak 05:54 EDT 21:12 EDT
Astronomický soumrak 05:18 EDT 21:48 EDT
Měsíc 13:52 EDT (9/1) 23:59 EDT (9/1)
Délka denního světla 14h 07m
Délka dne
13h 09m
Tomorrow will be 2m 47s shorter.
Dorůstající srpek, 46% of the Moon is Illuminated
Dnes
Dorůstající srpek
Zář 2
První čtvrť
Zář 8
Úplněk
Zář 15
Ubývající
Zář 24
Nov

Dnešní extrémy

State Highs State Lows

Community

WunderPhotos

Upload Photos

1,749,476 snímků staženo!

Nearby

Kvalita ovzduší

  Kvalita ovzduší Index kvality ovzduší Polutant
Včera Dobrý
PM2.5
Včera Dobrý
OZONE
Nyní Dobrý
PM2.5
Nyní Dobrý
OZONE
Pondělí Dobrý
OZONE
Pondělí Dobrý
PM2.5
Úterý Dobrý
OZONE
Úterý Dobrý
PM2.5

Výška sněhu

Station Hloubka Nadmořská výška
Žádný nový sníh nebyl hlášen

Seizmická činnost

Město Distance Mag. Čas & datum
Žádné zemětřesení v okolí nebylo hlášeno
Minimální zobrazený rozsah je 2.5.

Pobřežní teplota vody

Lokalita Teplota
Stanice nic nehlásí

Poblíž povětrnostní stanice